Terminal Aerodrome Forecast
Issued by NWS Boston, MA

Home | Current Version | Previous Version | Text Only | Print | Product List | Glossary On
Versions: 1 2 3 4 5 6 7 8 9 10 11 12 13 14 15 16 17 18 19 20 21 22 23 24 25 26 27 28 29 30 31 32 33 34
000
FTUS41 KBOX 311737
TAFORH
TAF
KORH 311737Z 3118/0118 22009KT P6SM VCTS FEW040CB BKN050
     FM312200 21006KT P6SM BKN050
     FM010000 21006KT P6SM SCT050 SCT250
     FM010300 23006KT P6SM SCT250
     FM011500 18004KT P6SM FEW050 SCT250
     FM011600 18004KT P6SM BKN050=

USA.gov is the U.S. government's official web portal to all federal, state and local government web resources and services.